createdAt,value
2022-09-11T00:00:06.245Z,1011.91
2022-09-11T00:01:06.146Z,1011.98
2022-09-11T00:02:05.394Z,1012.02
2022-09-11T00:03:05.453Z,1012.02
2022-09-11T00:04:05.378Z,1012.04
2022-09-11T00:05:05.379Z,1012.00
2022-09-11T00:06:06.185Z,1011.98
2022-09-11T00:07:05.368Z,1011.98
2022-09-11T00:08:05.307Z,1011.91
2022-09-11T00:09:05.291Z,1011.93
2022-09-11T00:10:05.347Z,1011.92
2022-09-11T00:11:05.306Z,1011.91
2022-09-11T00:12:05.261Z,1011.87
2022-09-11T00:13:06.018Z,1011.96
2022-09-11T00:14:06.221Z,1011.96
2022-09-11T00:15:05.302Z,1012.01
2022-09-11T00:16:05.226Z,1011.88
2022-09-11T00:17:06.150Z,1011.88
2022-09-11T00:18:06.051Z,1011.96
2022-09-11T00:19:05.193Z,1011.92
2022-09-11T00:20:06.125Z,1011.92
2022-09-11T00:21:05.174Z,1011.93
2022-09-11T00:22:05.133Z,1011.93
2022-09-11T00:23:06.084Z,1011.95
2022-09-11T00:24:05.093Z,1011.93
2022-09-11T00:25:05.892Z,1011.94
2022-09-11T00:26:05.091Z,1011.91
2022-09-11T00:27:05.052Z,1011.91
2022-09-11T00:28:05.053Z,1011.93
2022-09-11T00:29:05.019Z,1011.92
2022-09-11T00:30:05.035Z,1011.91
2022-09-11T00:31:05.072Z,1011.91
2022-09-11T00:32:04.994Z,1011.89
2022-09-11T00:33:05.894Z,1011.94
2022-09-11T00:34:04.947Z,1012.01
2022-09-11T00:35:05.695Z,1011.97
2022-09-11T00:36:05.867Z,1011.97
2022-09-11T00:37:04.925Z,1011.98
2022-09-11T00:38:04.899Z,1012.01
2022-09-11T00:39:04.897Z,1012.00
2022-09-11T00:40:05.055Z,1012.01
2022-09-11T00:41:05.008Z,1012.01
2022-09-11T00:42:05.316Z,1011.97
2022-09-11T00:43:05.421Z,1011.92
2022-09-11T00:44:05.788Z,1011.96
2022-09-11T00:45:06.056Z,1011.94
2022-09-11T00:46:06.459Z,1011.92
2022-09-11T00:47:06.470Z,1011.93
2022-09-11T00:48:07.129Z,1011.95
2022-09-11T00:49:05.528Z,1011.95
2022-09-11T00:50:05.231Z,1011.92
2022-09-11T00:51:06.741Z,1011.91
2022-09-11T00:52:05.471Z,1011.89
2022-09-11T00:53:05.257Z,1011.91
2022-09-11T00:54:05.528Z,1011.96
2022-09-11T00:55:05.742Z,1012.03
2022-09-11T00:56:05.033Z,1012.01
2022-09-11T00:57:05.279Z,1011.97
2022-09-11T00:58:10.633Z,1011.94
2022-09-11T00:59:05.070Z,1011.98
2022-09-11T01:00:04.706Z,1012.00
2022-09-11T01:01:04.867Z,1011.97
2022-09-11T01:02:04.583Z,1012.03
2022-09-11T01:03:04.921Z,1012.03
2022-09-11T01:04:05.525Z,1011.99
2022-09-11T01:05:04.605Z,1012.03
2022-09-11T01:06:05.979Z,1012.08
2022-09-11T01:07:09.265Z,1012.01
2022-09-11T01:08:13.410Z,1012.00
2022-09-11T01:09:06.118Z,1012.02
2022-09-11T01:10:05.524Z,1012.03
2022-09-11T01:11:04.914Z,1012.10
2022-09-11T01:12:04.616Z,1012.04
2022-09-11T01:13:05.686Z,1011.97
2022-09-11T01:14:04.695Z,1011.96
2022-09-11T01:15:04.577Z,1012.04
2022-09-11T01:16:04.996Z,1011.98
2022-09-11T01:17:04.517Z,1011.95
2022-09-11T01:18:04.477Z,1011.99
2022-09-11T01:19:04.407Z,1012.05
2022-09-11T01:20:04.862Z,1012.01
2022-09-11T01:21:05.198Z,1012.06
2022-09-11T01:22:04.798Z,1012.10
2022-09-11T01:23:04.629Z,1012.16
2022-09-11T01:24:04.738Z,1012.15
2022-09-11T01:25:05.180Z,1012.12
2022-09-11T01:26:05.519Z,1012.09
2022-09-11T01:27:04.268Z,1012.11
2022-09-11T01:28:05.583Z,1012.15
2022-09-11T01:29:04.680Z,1012.20
2022-09-11T01:30:06.315Z,1012.26
2022-09-11T01:31:04.311Z,1012.24
2022-09-11T01:32:04.351Z,1012.22
2022-09-11T01:33:04.335Z,1012.25
2022-09-11T01:34:07.594Z,1012.24
2022-09-11T01:35:04.204Z,1012.19
2022-09-11T01:36:04.514Z,1012.24
2022-09-11T01:37:04.371Z,1012.20
2022-09-11T01:38:04.213Z,1012.16
2022-09-11T01:39:04.173Z,1012.14
2022-09-11T01:40:04.100Z,1012.20
2022-09-11T01:41:04.114Z,1012.24
2022-09-11T01:42:04.002Z,1012.23
2022-09-11T01:43:04.690Z,1012.18
2022-09-11T01:44:04.055Z,1012.17
2022-09-11T01:45:04.063Z,1012.22
2022-09-11T01:46:04.053Z,1012.18
2022-09-11T01:47:03.944Z,1012.19
2022-09-11T01:48:03.954Z,1012.15
2022-09-11T01:49:03.884Z,1012.17
2022-09-11T01:50:03.982Z,1012.19
2022-09-11T01:51:03.937Z,1012.14
2022-09-11T01:52:04.707Z,1012.19
2022-09-11T01:53:03.848Z,1012.23
2022-09-11T01:54:03.866Z,1012.30
2022-09-11T01:55:03.905Z,1012.26
2022-09-11T01:56:03.807Z,1012.30
2022-09-11T01:57:03.786Z,1012.30
2022-09-11T01:58:03.897Z,1012.30
2022-09-11T01:59:04.548Z,1012.32
2022-09-11T02:00:03.939Z,1012.33
2022-09-11T02:01:03.953Z,1012.36
2022-09-11T02:02:03.843Z,1012.41
2022-09-11T02:03:03.712Z,1012.39
2022-09-11T02:04:03.737Z,1012.42
2022-09-11T02:05:03.668Z,1012.29
2022-09-11T02:06:03.670Z,1012.30
2022-09-11T02:07:03.715Z,1012.27
2022-09-11T02:08:03.660Z,1012.23
2022-09-11T02:09:03.619Z,1012.26
2022-09-11T02:10:03.621Z,1012.27
2022-09-11T02:11:03.602Z,1012.32
2022-09-11T02:12:03.573Z,1012.28
2022-09-11T02:13:03.642Z,1012.32
2022-09-11T02:14:03.547Z,1012.32
2022-09-11T02:15:03.553Z,1012.33
2022-09-11T02:16:03.611Z,1012.32
2022-09-11T02:17:03.692Z,1012.30
2022-09-11T02:18:03.857Z,1012.33
2022-09-11T02:19:04.683Z,1012.38
2022-09-11T02:20:03.694Z,1012.30
2022-09-11T02:21:03.665Z,1012.40
2022-09-11T02:22:03.434Z,1012.32
2022-09-11T02:23:03.443Z,1012.35
2022-09-11T02:24:03.445Z,1012.38
2022-09-11T02:25:03.643Z,1012.40
2022-09-11T02:26:03.395Z,1012.33
2022-09-11T02:27:03.365Z,1012.33
2022-09-11T02:28:03.345Z,1012.32
2022-09-11T02:29:03.346Z,1012.29
2022-09-11T02:30:03.455Z,1012.21
2022-09-11T02:31:04.434Z,1012.27
2022-09-11T02:32:04.223Z,1012.27
2022-09-11T02:33:04.270Z,1012.31
2022-09-11T02:34:03.446Z,1012.32
2022-09-11T02:35:03.501Z,1012.35
2022-09-11T02:36:03.265Z,1012.42
2022-09-11T02:37:03.209Z,1012.41
2022-09-11T02:38:03.227Z,1012.43
2022-09-11T02:39:03.218Z,1012.47
2022-09-11T02:40:03.310Z,1012.48
2022-09-11T02:41:03.269Z,1012.44
2022-09-11T02:42:03.281Z,1012.47
2022-09-11T02:43:03.250Z,1012.51
2022-09-11T02:44:03.140Z,1012.52
2022-09-11T02:45:03.150Z,1012.57
2022-09-11T02:46:03.145Z,1012.59
2022-09-11T02:47:04.038Z,1012.55
2022-09-11T02:48:03.146Z,1012.54
2022-09-11T02:49:03.090Z,1012.51
2022-09-11T02:50:03.072Z,1012.47
2022-09-11T02:51:03.040Z,1012.52
2022-09-11T02:52:03.813Z,1012.53
2022-09-11T02:53:03.021Z,1012.53
2022-09-11T02:54:03.112Z,1012.59
2022-09-11T02:55:03.007Z,1012.64
2022-09-11T02:56:02.985Z,1012.69
2022-09-11T02:57:02.983Z,1012.69
2022-09-11T02:58:02.944Z,1012.67
2022-09-11T02:59:03.914Z,1012.67
2022-09-11T03:00:02.932Z,1012.70
2022-09-11T03:01:02.968Z,1012.71
2022-09-11T03:02:02.951Z,1012.76
2022-09-11T03:03:02.936Z,1012.73
2022-09-11T03:04:02.845Z,1012.80
2022-09-11T03:05:02.876Z,1012.76
2022-09-11T03:06:02.835Z,1012.78
2022-09-11T03:07:02.818Z,1012.76
2022-09-11T03:08:03.556Z,1012.78
2022-09-11T03:09:02.786Z,1012.78
2022-09-11T03:10:02.806Z,1012.79
2022-09-11T03:11:02.787Z,1012.90
2022-09-11T03:12:03.689Z,1012.91
2022-09-11T03:13:03.590Z,1012.91
2022-09-11T03:14:03.495Z,1012.87
2022-09-11T03:15:02.737Z,1012.92
2022-09-11T03:16:02.717Z,1012.97
2022-09-11T03:17:02.678Z,1012.87
2022-09-11T03:18:02.663Z,1012.86
2022-09-11T03:19:03.527Z,1012.88
2022-09-11T03:20:03.429Z,1012.85
2022-09-11T03:21:02.681Z,1012.92
2022-09-11T03:22:02.620Z,1012.96
2022-09-11T03:23:03.679Z,1012.96
2022-09-11T03:24:02.632Z,1012.97
2022-09-11T03:25:03.460Z,1012.96
2022-09-11T03:26:03.414Z,1012.92
2022-09-11T03:27:03.532Z,1012.90
2022-09-11T03:28:02.520Z,1012.88
2022-09-11T03:29:03.333Z,1012.88
2022-09-11T03:30:02.530Z,1012.87
2022-09-11T03:31:02.516Z,1012.93
2022-09-11T03:32:02.512Z,1012.96
2022-09-11T03:33:02.488Z,1012.97
2022-09-11T03:34:02.471Z,1012.93
2022-09-11T03:35:03.273Z,1012.90
2022-09-11T03:36:02.422Z,1012.91
2022-09-11T03:37:02.395Z,1012.87
2022-09-11T03:38:02.424Z,1012.85
2022-09-11T03:39:02.638Z,1012.83
2022-09-11T03:40:03.340Z,1012.88
2022-09-11T03:41:02.325Z,1012.85
2022-09-11T03:42:03.119Z,1012.88
2022-09-11T03:43:03.265Z,1012.83
2022-09-11T03:44:02.316Z,1012.82
2022-09-11T03:45:03.079Z,1012.85
2022-09-11T03:46:02.313Z,1012.82
2022-09-11T03:47:02.291Z,1012.79
2022-09-11T03:48:02.296Z,1012.82
2022-09-11T03:49:02.238Z,1012.83
2022-09-11T03:50:02.449Z,1012.83
2022-09-11T03:51:03.664Z,1012.82
2022-09-11T03:52:02.199Z,1012.85
2022-09-11T03:53:02.210Z,1012.89
2022-09-11T03:54:02.980Z,1012.92
2022-09-11T03:55:02.208Z,1012.89
2022-09-11T03:56:02.167Z,1012.89
2022-09-11T03:57:02.951Z,1012.89
2022-09-11T03:58:03.110Z,1012.85
2022-09-11T03:59:03.053Z,1012.84
2022-09-11T04:00:02.919Z,1012.86
2022-09-11T04:01:02.146Z,1012.85
2022-09-11T04:02:03.056Z,1012.91
2022-09-11T04:03:02.887Z,1012.82
2022-09-11T04:04:02.027Z,1012.81
2022-09-11T04:05:02.311Z,1012.85
2022-09-11T04:06:02.056Z,1012.83
2022-09-11T04:07:02.752Z,1012.76
2022-09-11T04:08:01.992Z,1012.79
2022-09-11T04:09:01.962Z,1012.72
2022-09-11T04:10:01.943Z,1012.72
2022-09-11T04:11:02.044Z,1012.69
2022-09-11T04:12:02.784Z,1012.66
2022-09-11T04:13:02.694Z,1012.68
2022-09-11T04:14:01.893Z,1012.69
2022-09-11T04:15:02.799Z,1012.70
2022-09-11T04:16:02.698Z,1012.68
2022-09-11T04:17:02.824Z,1012.68
2022-09-11T04:18:05.581Z,1012.68
2022-09-11T04:19:02.634Z,1012.68
2022-09-11T04:20:01.804Z,1012.68
2022-09-11T04:21:02.794Z,1012.69
2022-09-11T04:22:01.794Z,1012.69
2022-09-11T04:23:03.256Z,1012.73
2022-09-11T04:24:01.750Z,1012.77
2022-09-11T04:25:02.565Z,1012.79
2022-09-11T04:26:01.758Z,1012.78
2022-09-11T04:27:01.791Z,1012.81
2022-09-11T04:28:02.589Z,1012.80
2022-09-11T04:29:01.706Z,1012.82
2022-09-11T04:30:01.722Z,1012.81
2022-09-11T04:31:01.668Z,1012.78
2022-09-11T04:32:02.532Z,1012.78
2022-09-11T04:33:01.687Z,1012.80
2022-09-11T04:34:03.075Z,1012.81
2022-09-11T04:35:02.371Z,1012.84
2022-09-11T04:36:02.601Z,1012.84
2022-09-11T04:37:01.687Z,1012.88
2022-09-11T04:38:02.341Z,1012.95
2022-09-11T04:39:02.503Z,1012.93
2022-09-11T04:40:01.630Z,1012.94
2022-09-11T04:41:01.547Z,1012.99
2022-09-11T04:42:02.474Z,1012.96
2022-09-11T04:43:01.504Z,1013.00
2022-09-11T04:44:05.312Z,1013.08
2022-09-11T04:45:01.453Z,1013.04
2022-09-11T04:46:01.490Z,1013.00
2022-09-11T04:47:01.677Z,1013.04
2022-09-11T04:48:01.448Z,1013.07
2022-09-11T04:49:01.596Z,1013.08
2022-09-11T04:50:01.574Z,1013.06
2022-09-11T04:51:02.824Z,1013.07
2022-09-11T04:52:02.276Z,1013.09
2022-09-11T04:53:01.421Z,1013.06
2022-09-11T04:54:01.324Z,1013.13
2022-09-11T04:55:01.295Z,1013.09
2022-09-11T04:56:02.146Z,1013.13
2022-09-11T04:57:01.636Z,1013.19
2022-09-11T04:58:01.300Z,1013.20
2022-09-11T04:59:01.356Z,1013.19
2022-09-11T05:00:01.314Z,1013.17
2022-09-11T05:01:01.297Z,1013.17
2022-09-11T05:02:01.752Z,1013.21
2022-09-11T05:03:01.277Z,1013.21
2022-09-11T05:04:01.380Z,1013.23
2022-09-11T05:05:01.222Z,1013.21
2022-09-11T05:06:01.193Z,1013.23
2022-09-11T05:07:02.141Z,1013.14
2022-09-11T05:08:02.019Z,1013.18
2022-09-11T05:09:01.920Z,1013.18
2022-09-11T05:10:01.129Z,1013.22
2022-09-11T05:11:01.293Z,1013.22
2022-09-11T05:12:01.081Z,1013.21
2022-09-11T05:13:01.111Z,1013.17
2022-09-11T05:14:01.443Z,1013.09
2022-09-11T05:15:01.098Z,1012.97
2022-09-11T05:16:01.074Z,1012.76
2022-09-11T05:17:01.030Z,1012.83
2022-09-11T05:18:01.064Z,1012.79
2022-09-11T05:19:01.046Z,1012.78
2022-09-11T05:20:01.015Z,1012.75
2022-09-11T05:21:01.189Z,1012.89
2022-09-11T05:22:00.935Z,1013.07
2022-09-11T05:23:00.994Z,1013.05
2022-09-11T05:24:01.238Z,1013.01
2022-09-11T05:25:01.664Z,1013.01
2022-09-11T05:26:00.888Z,1012.99
2022-09-11T05:27:00.976Z,1012.90
2022-09-11T05:28:00.945Z,1012.84
2022-09-11T05:29:00.875Z,1012.81
2022-09-11T05:30:00.993Z,1012.83
2022-09-11T05:31:00.942Z,1012.89
2022-09-11T05:32:00.906Z,1012.95
2022-09-11T05:33:00.930Z,1013.06
2022-09-11T05:34:01.035Z,1013.12
2022-09-11T05:35:01.736Z,1013.12
2022-09-11T05:36:00.869Z,1013.21
2022-09-11T05:37:00.984Z,1013.31
2022-09-11T05:38:01.704Z,1013.29
2022-09-11T05:39:01.716Z,1013.29
2022-09-11T05:40:01.565Z,1013.25
2022-09-11T05:41:01.679Z,1013.28
2022-09-11T05:42:01.577Z,1013.28
2022-09-11T05:43:01.482Z,1013.25
2022-09-11T05:44:00.649Z,1013.32
2022-09-11T05:45:01.546Z,1013.25
2022-09-11T05:46:01.732Z,1013.35
2022-09-11T05:47:00.660Z,1013.37
2022-09-11T05:48:00.698Z,1013.38
2022-09-11T05:49:00.655Z,1013.43
2022-09-11T05:50:02.041Z,1013.41
2022-09-11T05:51:01.483Z,1013.41
2022-09-11T05:52:01.390Z,1013.42
2022-09-11T05:53:01.545Z,1013.49
2022-09-11T05:54:01.466Z,1013.51
2022-09-11T05:55:00.737Z,1013.52
2022-09-11T05:56:00.527Z,1013.54
2022-09-11T05:57:03.473Z,1013.57
2022-09-11T05:58:01.444Z,1013.62
2022-09-11T05:59:00.434Z,1013.72
2022-09-11T06:00:01.387Z,1013.65
2022-09-11T06:01:01.926Z,1013.64
2022-09-11T06:02:00.731Z,1013.63
2022-09-11T06:03:00.448Z,1013.71
2022-09-11T06:04:00.580Z,1013.72
2022-09-11T06:05:00.679Z,1013.80
2022-09-11T06:06:00.347Z,1013.72
2022-09-11T06:07:01.233Z,1013.72
2022-09-11T06:08:01.132Z,1013.77
2022-09-11T06:09:01.288Z,1013.78
2022-09-11T06:10:03.365Z,1013.87
2022-09-11T06:11:01.091Z,1013.82
2022-09-11T06:12:00.250Z,1013.71
2022-09-11T06:13:01.159Z,1013.79
2022-09-11T06:14:00.297Z,1013.81
2022-09-11T06:15:00.231Z,1013.83
2022-09-11T06:16:00.210Z,1013.86
2022-09-11T06:17:01.693Z,1013.97
2022-09-11T06:18:00.933Z,1013.93
2022-09-11T06:19:00.419Z,1013.85
2022-09-11T06:20:00.205Z,1013.88
2022-09-11T06:21:01.162Z,1013.99
2022-09-11T06:22:01.065Z,1013.93
2022-09-11T06:23:03.305Z,1013.93
2022-09-11T06:24:00.872Z,1013.99
2022-09-11T06:25:00.083Z,1014.03
2022-09-11T06:26:00.085Z,1014.03
2022-09-11T06:27:00.066Z,1014.03
2022-09-11T06:28:01.074Z,1014.06
2022-09-11T06:29:00.469Z,1014.12
2022-09-11T06:30:00.233Z,1014.10
2022-09-11T06:31:00.539Z,1014.15
2022-09-11T06:32:00.034Z,1014.15
2022-09-11T06:33:00.123Z,1014.12
2022-09-11T06:34:00.072Z,1014.12
2022-09-11T06:35:00.069Z,1014.17
2022-09-11T06:35:59.960Z,1014.20
2022-09-11T06:37:00.062Z,1014.27
2022-09-11T06:37:59.953Z,1014.27
2022-09-11T06:38:59.916Z,1014.26
2022-09-11T06:40:00.008Z,1014.25
2022-09-11T06:41:00.001Z,1014.29
2022-09-11T06:41:59.874Z,1014.36
2022-09-11T06:42:59.972Z,1014.39
2022-09-11T06:43:59.846Z,1014.34
2022-09-11T06:44:59.903Z,1014.33
2022-09-11T06:45:59.855Z,1014.35
2022-09-11T06:46:59.864Z,1014.27
2022-09-11T06:47:59.905Z,1014.30
2022-09-11T06:49:00.551Z,1014.29
2022-09-11T06:49:59.730Z,1014.22
2022-09-11T06:50:59.761Z,1014.26
2022-09-11T06:51:59.823Z,1014.29
2022-09-11T06:52:59.715Z,1014.30
2022-09-11T06:53:59.756Z,1014.36
2022-09-11T06:54:59.731Z,1014.26
2022-09-11T06:55:59.662Z,1014.35
2022-09-11T06:56:59.813Z,1014.37
2022-09-11T06:57:59.708Z,1014.41
2022-09-11T06:58:59.642Z,1014.32
2022-09-11T06:59:59.582Z,1014.47
2022-09-11T07:00:59.679Z,1014.42
2022-09-11T07:02:00.409Z,1014.33
2022-09-11T07:02:59.610Z,1014.37
2022-09-11T07:04:00.428Z,1014.32
2022-09-11T07:04:59.508Z,1014.33
2022-09-11T07:06:00.455Z,1014.42
2022-09-11T07:06:59.476Z,1014.57
2022-09-11T07:07:59.550Z,1014.60
2022-09-11T07:09:00.387Z,1014.48
2022-09-11T07:09:59.457Z,1014.35
2022-09-11T07:10:59.482Z,1014.48
2022-09-11T07:11:59.448Z,1014.46
2022-09-11T07:12:59.464Z,1014.49
2022-09-11T07:13:59.378Z,1014.54
2022-09-11T07:14:59.691Z,1014.42
2022-09-11T07:15:59.378Z,1014.41
2022-09-11T07:16:59.629Z,1014.45
2022-09-11T07:18:00.290Z,1014.54
2022-09-11T07:18:59.310Z,1014.66
2022-09-11T07:20:00.113Z,1014.68
2022-09-11T07:20:59.437Z,1014.78
2022-09-11T07:22:00.183Z,1014.95
2022-09-11T07:22:59.270Z,1015.04
2022-09-11T07:23:59.998Z,1015.00
2022-09-11T07:25:00.938Z,1015.18
2022-09-11T07:25:59.211Z,1015.12
2022-09-11T07:26:59.951Z,1015.01
2022-09-11T07:27:59.220Z,1014.87
2022-09-11T07:29:00.005Z,1014.91
2022-09-11T07:29:59.930Z,1014.90
2022-09-11T07:31:00.132Z,1014.88
2022-09-11T07:31:59.983Z,1014.87
2022-09-11T07:32:59.474Z,1014.77
2022-09-11T07:34:00.043Z,1014.88
2022-09-11T07:34:59.164Z,1014.97
2022-09-11T07:35:59.080Z,1014.90
2022-09-11T07:37:00.005Z,1014.82
2022-09-11T07:37:59.907Z,1014.81
2022-09-11T07:38:59.818Z,1014.78
2022-09-11T07:39:59.125Z,1014.81
2022-09-11T07:40:59.905Z,1014.80
2022-09-11T07:41:59.790Z,1014.82
2022-09-11T07:42:59.957Z,1014.85
2022-09-11T07:43:58.969Z,1014.81
2022-09-11T07:44:58.939Z,1014.87
2022-09-11T07:45:59.944Z,1014.95
2022-09-11T07:46:58.899Z,1015.02
2022-09-11T07:47:59.196Z,1014.79
2022-09-11T07:48:59.657Z,1014.69
2022-09-11T07:49:58.890Z,1014.77
2022-09-11T07:50:59.441Z,1014.84
2022-09-11T07:51:59.354Z,1014.75
2022-09-11T07:52:58.850Z,1014.72
2022-09-11T07:53:59.685Z,1014.77
2022-09-11T07:54:58.820Z,1014.86
2022-09-11T07:55:58.832Z,1015.09
2022-09-11T07:56:58.782Z,1015.05
2022-09-11T07:57:58.787Z,1015.04
2022-09-11T07:58:59.684Z,1015.09
2022-09-11T07:59:58.733Z,1015.20
2022-09-11T08:00:58.775Z,1015.26
2022-09-11T08:01:59.754Z,1015.40
2022-09-11T08:02:59.564Z,1015.33
2022-09-11T08:03:58.684Z,1015.36
2022-09-11T08:04:59.630Z,1015.22
2022-09-11T08:05:59.570Z,1015.33
2022-09-11T08:06:58.732Z,1015.31
2022-09-11T08:07:58.787Z,1015.67
2022-09-11T08:08:59.497Z,1015.79
2022-09-11T08:10:16.697Z,1015.79
2022-09-11T08:10:59.567Z,1015.92
2022-09-11T08:11:58.776Z,1015.93
2022-09-11T08:13:00.091Z,1015.87
2022-09-11T08:13:58.525Z,1015.82
2022-09-11T08:14:59.428Z,1015.96
2022-09-11T08:15:59.338Z,1015.93
2022-09-11T08:16:58.582Z,1015.93
2022-09-11T08:17:58.528Z,1015.99
2022-09-11T08:18:58.690Z,1016.04
2022-09-11T08:19:58.458Z,1016.04
2022-09-11T08:20:58.413Z,1015.93
2022-09-11T08:21:59.270Z,1015.93
2022-09-11T08:22:59.186Z,1016.10
2022-09-11T08:23:58.492Z,1016.11
2022-09-11T08:24:58.415Z,1016.09
2022-09-11T08:25:59.142Z,1016.08
2022-09-11T08:26:58.784Z,1015.89
2022-09-11T08:27:59.229Z,1016.07
2022-09-11T08:28:58.344Z,1015.92
2022-09-11T08:29:59.280Z,1015.99
2022-09-11T08:30:58.396Z,1015.87
2022-09-11T08:32:02.239Z,1015.73
2022-09-11T08:32:59.239Z,1015.77
2022-09-11T08:33:58.313Z,1015.87
2022-09-11T08:34:58.259Z,1016.00
2022-09-11T08:35:58.303Z,1015.99
2022-09-11T08:36:58.209Z,1015.85
2022-09-11T08:37:59.014Z,1015.95
2022-09-11T08:38:58.301Z,1015.84
2022-09-11T08:39:58.319Z,1015.89
2022-09-11T08:40:58.147Z,1015.80
2022-09-11T08:41:58.110Z,1015.83
2022-09-11T08:42:58.140Z,1016.04
2022-09-11T08:43:58.949Z,1015.99
2022-09-11T08:44:58.264Z,1016.11
2022-09-11T08:45:58.277Z,1016.18
2022-09-11T08:46:58.029Z,1016.20
2022-09-11T08:47:58.190Z,1016.17
2022-09-11T08:48:58.987Z,1016.10
2022-09-11T08:49:58.125Z,1016.20
2022-09-11T08:50:58.043Z,1016.17
2022-09-11T08:51:58.021Z,1016.06
2022-09-11T08:52:58.016Z,1016.20
2022-09-11T08:53:57.995Z,1016.17
2022-09-11T08:54:58.003Z,1016.17
2022-09-11T08:55:57.994Z,1016.15
2022-09-11T08:56:57.938Z,1016.08
2022-09-11T08:57:58.937Z,1016.14
2022-09-11T08:58:57.956Z,1016.14
2022-09-11T08:59:58.716Z,1016.11
2022-09-11T09:00:58.935Z,1016.17
2022-09-11T09:01:57.886Z,1016.20
2022-09-11T09:02:57.936Z,1016.18
2022-09-11T09:03:57.806Z,1016.26
2022-09-11T09:04:57.856Z,1016.15
2022-09-11T09:05:57.800Z,1016.27
2022-09-11T09:06:57.842Z,1016.23
2022-09-11T09:07:57.778Z,1016.28
2022-09-11T09:08:58.039Z,1016.42
2022-09-11T09:09:57.792Z,1016.26
2022-09-11T09:10:57.818Z,1016.34
2022-09-11T09:11:57.742Z,1016.32
2022-09-11T09:12:57.826Z,1016.30
2022-09-11T09:13:57.795Z,1016.35
2022-09-11T09:14:57.716Z,1016.29
2022-09-11T09:15:58.456Z,1016.37
2022-09-11T09:16:59.112Z,1016.38
2022-09-11T09:17:57.688Z,1016.37
2022-09-11T09:18:57.702Z,1016.36
2022-09-11T09:19:57.634Z,1016.32
2022-09-11T09:20:57.662Z,1016.38
2022-09-11T09:21:57.596Z,1016.36
2022-09-11T09:22:57.811Z,1016.40
2022-09-11T09:23:57.577Z,1016.38
2022-09-11T09:24:57.604Z,1016.27
2022-09-11T09:25:57.542Z,1016.30
2022-09-11T09:26:57.644Z,1016.27
2022-09-11T09:27:57.556Z,1016.24
2022-09-11T09:28:57.577Z,1016.27
2022-09-11T09:29:57.488Z,1016.18
2022-09-11T09:30:57.526Z,1016.18
2022-09-11T09:31:57.516Z,1016.22
2022-09-11T09:32:58.341Z,1016.18
2022-09-11T09:33:58.247Z,1016.14
2022-09-11T09:34:57.428Z,1016.17
2022-09-11T09:35:57.360Z,1016.19
2022-09-11T09:36:57.358Z,1016.14
2022-09-11T09:37:58.122Z,1016.13
2022-09-11T09:38:58.282Z,1016.18
2022-09-11T09:39:57.407Z,1016.23
2022-09-11T09:40:57.353Z,1016.14
2022-09-11T09:41:57.559Z,1016.20
2022-09-11T09:42:57.621Z,1016.06
2022-09-11T09:43:57.651Z,1016.23
2022-09-11T09:44:57.332Z,1016.18
2022-09-11T09:45:57.356Z,1016.18
2022-09-11T09:46:57.294Z,1016.19
2022-09-11T09:47:57.301Z,1016.24
2022-09-11T09:48:57.356Z,1016.17
2022-09-11T09:49:57.303Z,1016.11
2022-09-11T09:50:57.292Z,1016.23
2022-09-11T09:52:00.961Z,1016.20
2022-09-11T09:52:58.155Z,1016.17
2022-09-11T09:53:57.225Z,1016.16
2022-09-11T09:54:58.026Z,1016.28
2022-09-11T09:55:57.106Z,1016.39
2022-09-11T09:56:57.593Z,1016.26
2022-09-11T09:57:57.993Z,1016.33
2022-09-11T09:58:57.908Z,1016.34
2022-09-11T09:59:57.797Z,1016.15
2022-09-11T10:00:57.557Z,1016.19
2022-09-11T10:01:57.127Z,1016.20
2022-09-11T10:02:57.092Z,1016.32
2022-09-11T10:03:57.059Z,1016.36
2022-09-11T10:04:57.050Z,1016.39
2022-09-11T10:05:57.071Z,1016.37
2022-09-11T10:06:57.357Z,1016.25
2022-09-11T10:07:57.040Z,1016.32
2022-09-11T10:09:00.181Z,1016.19
2022-09-11T10:09:57.921Z,1016.39
2022-09-11T10:10:57.767Z,1016.41
2022-09-11T10:11:57.749Z,1016.45
2022-09-11T10:13:17.747Z,1016.42
2022-09-11T10:13:57.915Z,1016.43
2022-09-11T10:14:57.653Z,1016.40
2022-09-11T10:15:57.620Z,1016.26
2022-09-11T10:16:57.044Z,1016.48
2022-09-11T10:17:56.856Z,1016.39
2022-09-11T10:18:57.589Z,1016.47
2022-09-11T10:19:56.795Z,1016.45
2022-09-11T10:21:01.412Z,1016.46
2022-09-11T10:21:57.478Z,1016.45
2022-09-11T10:22:57.640Z,1016.39
2022-09-11T10:23:56.722Z,1016.54
2022-09-11T10:24:57.450Z,1016.55
2022-09-11T10:25:56.719Z,1016.62
2022-09-11T10:26:56.699Z,1016.49
2022-09-11T10:27:56.738Z,1016.54
2022-09-11T10:28:56.630Z,1016.58
2022-09-11T10:29:57.600Z,1016.58
2022-09-11T10:30:56.692Z,1016.50
2022-09-11T10:31:56.618Z,1016.56
2022-09-11T10:33:02.603Z,1016.57
2022-09-11T10:33:57.582Z,1016.50
2022-09-11T10:34:56.572Z,1016.48
2022-09-11T10:35:56.628Z,1016.75
2022-09-11T10:36:56.584Z,1016.64
2022-09-11T10:37:56.563Z,1016.69
2022-09-11T10:38:57.391Z,1016.71
2022-09-11T10:39:57.318Z,1016.66
2022-09-11T10:40:57.485Z,1016.74
2022-09-11T10:41:57.415Z,1016.60
2022-09-11T10:42:57.262Z,1016.66
2022-09-11T10:43:56.436Z,1016.54
2022-09-11T10:44:56.489Z,1016.54
2022-09-11T10:45:57.265Z,1016.54
2022-09-11T10:46:57.218Z,1016.50
2022-09-11T10:47:57.303Z,1016.53
2022-09-11T10:48:57.227Z,1016.55
2022-09-11T10:49:57.181Z,1016.56
2022-09-11T10:50:57.253Z,1016.51
2022-09-11T10:51:56.340Z,1016.61
2022-09-11T10:52:56.343Z,1016.62
2022-09-11T10:53:57.224Z,1016.60
2022-09-11T10:54:57.124Z,1016.67
2022-09-11T10:55:56.286Z,1016.52
2022-09-11T10:56:56.272Z,1016.63
2022-09-11T10:57:57.093Z,1016.63
2022-09-11T10:58:56.204Z,1016.64
2022-09-11T10:59:57.672Z,1016.63
2022-09-11T11:00:56.164Z,1016.74
2022-09-11T11:01:57.138Z,1016.51
2022-09-11T11:02:56.183Z,1016.69
2022-09-11T11:03:56.169Z,1016.52
2022-09-11T11:04:56.414Z,1016.52
2022-09-11T11:05:57.139Z,1016.67
2022-09-11T11:06:57.026Z,1016.66
2022-09-11T11:07:56.935Z,1016.67
2022-09-11T11:08:56.808Z,1016.50
2022-09-11T11:09:57.086Z,1016.66
2022-09-11T11:10:56.998Z,1016.69
2022-09-11T11:11:56.049Z,1016.58
2022-09-11T11:12:56.081Z,1016.69
2022-09-11T11:13:56.100Z,1016.63
2022-09-11T11:14:56.758Z,1016.66
2022-09-11T11:15:56.957Z,1016.68
2022-09-11T11:16:56.865Z,1016.63
2022-09-11T11:17:56.771Z,1016.58
2022-09-11T11:18:56.914Z,1016.53
2022-09-11T11:19:56.028Z,1016.60
2022-09-11T11:20:56.289Z,1016.64
2022-09-11T11:21:56.866Z,1016.62
2022-09-11T11:22:55.976Z,1016.60
2022-09-11T11:23:55.937Z,1016.61
2022-09-11T11:24:56.845Z,1016.67
2022-09-11T11:25:57.318Z,1016.68
2022-09-11T11:26:55.875Z,1016.65
2022-09-11T11:27:56.775Z,1016.60
2022-09-11T11:28:56.676Z,1016.64
2022-09-11T11:29:55.881Z,1016.71
2022-09-11T11:30:55.925Z,1016.73
2022-09-11T11:31:55.805Z,1016.71
2022-09-11T11:32:55.886Z,1016.71
2022-09-11T11:33:55.949Z,1016.62
2022-09-11T11:34:55.922Z,1016.58
2022-09-11T11:35:56.520Z,1016.59
2022-09-11T11:36:55.851Z,1016.60
2022-09-11T11:37:56.586Z,1016.58
2022-09-11T11:38:55.753Z,1016.53
2022-09-11T11:39:55.891Z,1016.61
2022-09-11T11:40:55.683Z,1016.58
2022-09-11T11:41:55.996Z,1016.61
2022-09-11T11:42:56.462Z,1016.56
2022-09-11T11:43:55.842Z,1016.59
2022-09-11T11:44:56.430Z,1016.55
2022-09-11T11:45:56.580Z,1016.61
2022-09-11T11:46:56.508Z,1016.59
2022-09-11T11:47:55.906Z,1016.56
2022-09-11T11:48:55.548Z,1016.62
2022-09-11T11:49:56.472Z,1016.62
2022-09-11T11:50:56.357Z,1016.59
2022-09-11T11:51:55.524Z,1016.69
2022-09-11T11:52:56.422Z,1016.59
2022-09-11T11:53:55.543Z,1016.73
2022-09-11T11:54:55.527Z,1016.69
2022-09-11T11:55:55.478Z,1016.74
2022-09-11T11:56:56.293Z,1016.74
2022-09-11T11:57:55.453Z,1016.68
2022-09-11T11:58:55.473Z,1016.64
2022-09-11T11:59:56.269Z,1016.66
2022-09-11T12:00:56.182Z,1016.77
2022-09-11T12:01:55.450Z,1016.71
2022-09-11T12:02:55.416Z,1016.74
2022-09-11T12:03:55.405Z,1016.76
2022-09-11T12:04:55.403Z,1016.72